createdAt,value
2022-12-16T00:01:19.924Z,100686.50
2022-12-16T00:03:49.885Z,100693.72
2022-12-16T00:06:22.965Z,100701.75
2022-12-16T00:08:51.848Z,100706.13
2022-12-16T00:11:20.645Z,100699.22
2022-12-16T00:13:49.154Z,100697.56
2022-12-16T00:16:19.620Z,100706.25
2022-12-16T00:18:48.404Z,100711.56
2022-12-16T00:21:18.469Z,100722.97
2022-12-16T00:23:48.233Z,100704.72
2022-12-16T00:26:16.212Z,100711.78
2022-12-16T00:28:44.259Z,100709.22
2022-12-16T00:31:13.112Z,100705.81
2022-12-16T00:33:41.128Z,100711.09
2022-12-16T00:36:10.254Z,100706.72
2022-12-16T00:38:38.308Z,100707.59
2022-12-16T00:41:08.141Z,100708.50
2022-12-16T00:43:36.375Z,100711.19
2022-12-16T00:46:04.585Z,100710.22
2022-12-16T00:48:32.561Z,100723.28
2022-12-16T00:51:00.584Z,100719.06
2022-12-16T00:53:29.284Z,100713.84
2022-12-16T00:56:03.387Z,100713.88
2022-12-16T00:58:32.781Z,100715.63
2022-12-16T01:01:01.117Z,100712.97
2022-12-16T01:03:29.413Z,100723.50
2022-12-16T01:05:57.457Z,100722.66
2022-12-16T01:08:25.483Z,100716.56
2022-12-16T01:10:55.343Z,100724.44
2022-12-16T01:13:25.404Z,100730.59
2022-12-16T01:15:55.131Z,100727.19
2022-12-16T01:18:23.189Z,100719.41
2022-12-16T01:20:51.381Z,100723.81
2022-12-16T01:23:19.783Z,100721.13
2022-12-16T01:25:52.512Z,100732.50
2022-12-16T01:28:20.485Z,100746.44
2022-12-16T01:30:48.440Z,100743.84
2022-12-16T01:33:17.854Z,100750.78
2022-12-16T01:35:55.771Z,100749.06
2022-12-16T01:38:24.319Z,100744.72
2022-12-16T01:40:52.681Z,100752.53
2022-12-16T01:43:27.123Z,100751.66
2022-12-16T01:45:59.792Z,100760.34
2022-12-16T01:48:39.980Z,100761.28
2022-12-16T01:51:12.064Z,100765.66
2022-12-16T01:53:43.216Z,100762.09
2022-12-16T01:56:14.056Z,100751.66
2022-12-16T01:58:43.607Z,100757.66
2022-12-16T02:01:11.798Z,100758.66
2022-12-16T02:06:09.001Z,100764.72
2022-12-16T02:08:37.098Z,100752.50
2022-12-16T02:11:28.482Z,100761.22
2022-12-16T02:14:34.025Z,100762.91
2022-12-16T02:17:08.709Z,100748.94
2022-12-16T02:20:13.720Z,100747.19
2022-12-16T02:23:00.325Z,100759.38
2022-12-16T02:25:48.457Z,100755.03
2022-12-16T02:28:33.586Z,100756.75
2022-12-16T02:31:16.772Z,100766.41
2022-12-16T02:33:53.432Z,100760.13
2022-12-16T02:36:32.981Z,100767.94
2022-12-16T02:39:05.996Z,100774.91
2022-12-16T02:41:42.342Z,100769.69
2022-12-16T02:44:12.314Z,100766.91
2022-12-16T02:46:43.660Z,100763.50
2022-12-16T02:49:53.221Z,100760.88
2022-12-16T02:52:23.855Z,100770.41
2022-12-16T02:54:56.890Z,100769.41
2022-12-16T02:58:04.496Z,100769.34
2022-12-16T03:00:39.491Z,100770.25
2022-12-16T03:03:13.958Z,100771.78
2022-12-16T03:05:48.290Z,100774.19
2022-12-16T03:08:22.044Z,100757.44
2022-12-16T03:10:54.837Z,100752.72
2022-12-16T03:13:24.592Z,100769.44
2022-12-16T03:15:56.987Z,100775.41
2022-12-16T03:18:27.799Z,100779.00
2022-12-16T03:20:58.318Z,100786.22
2022-12-16T03:23:30.123Z,100782.72
2022-12-16T03:26:05.850Z,100789.66
2022-12-16T03:28:44.423Z,100798.59
2022-12-16T03:31:20.091Z,100803.75
2022-12-16T03:33:57.356Z,100804.47
2022-12-16T03:36:28.266Z,100806.91
2022-12-16T03:38:58.015Z,100802.34
2022-12-16T03:41:27.335Z,100804.47
2022-12-16T03:43:55.684Z,100796.22
2022-12-16T03:46:23.813Z,100805.97
2022-12-16T03:48:53.895Z,100808.84
2022-12-16T03:51:21.901Z,100805.19
2022-12-16T03:53:49.887Z,100788.09
2022-12-16T03:56:17.913Z,100815.94
2022-12-16T03:58:46.999Z,100809.78
2022-12-16T04:01:15.851Z,100812.38
2022-12-16T04:03:44.105Z,100798.06
2022-12-16T04:06:13.563Z,100824.41
2022-12-16T04:08:41.513Z,100814.34
2022-12-16T04:11:26.490Z,100813.44
2022-12-16T04:14:12.078Z,100819.44
2022-12-16T04:16:57.708Z,100810.72
2022-12-16T04:19:46.443Z,100818.50
2022-12-16T04:22:38.600Z,100821.00
2022-12-16T04:25:10.153Z,100812.56
2022-12-16T04:27:38.190Z,100826.72
2022-12-16T04:30:22.361Z,100830.16
2022-12-16T04:33:11.697Z,100837.56
2022-12-16T04:35:57.267Z,100837.91
2022-12-16T04:38:44.038Z,100835.16
2022-12-16T04:41:29.799Z,100840.88
2022-12-16T04:44:15.708Z,100840.72
2022-12-16T04:47:01.158Z,100845.94
2022-12-16T04:49:46.747Z,100851.44
2022-12-16T04:52:32.360Z,100849.03
2022-12-16T04:55:19.238Z,100858.81
2022-12-16T04:58:15.764Z,100849.13
2022-12-16T05:01:01.872Z,100855.63
2022-12-16T05:03:47.497Z,100839.59
2022-12-16T05:06:33.483Z,100868.78
2022-12-16T05:09:19.083Z,100871.47
2022-12-16T05:12:06.560Z,100863.81
2022-12-16T05:14:52.336Z,100871.63
2022-12-16T05:17:38.456Z,100876.06
2022-12-16T05:20:25.076Z,100877.25
2022-12-16T05:23:10.596Z,100884.31
2022-12-16T05:25:56.232Z,100879.19
2022-12-16T05:28:42.982Z,100882.69
2022-12-16T05:31:33.917Z,100874.28
2022-12-16T05:34:19.550Z,100898.03
2022-12-16T05:37:05.019Z,100896.81
2022-12-16T05:39:50.763Z,100895.56
2022-12-16T05:42:36.336Z,100896.69
2022-12-16T05:45:23.991Z,100894.75
2022-12-16T05:48:09.536Z,100894.69
2022-12-16T05:50:55.291Z,100902.22
2022-12-16T05:53:41.576Z,100884.25
2022-12-16T05:56:27.375Z,100907.13
2022-12-16T05:59:12.874Z,100912.50
2022-12-16T06:01:59.827Z,100919.88
2022-12-16T06:04:45.179Z,100923.28
2022-12-16T06:07:30.858Z,100923.00
2022-12-16T06:10:16.041Z,100920.03
2022-12-16T06:13:14.250Z,100928.88
2022-12-16T06:16:03.740Z,100936.16
2022-12-16T06:18:53.854Z,100939.28
2022-12-16T06:21:39.396Z,100939.09
2022-12-16T06:24:25.385Z,100940.38
2022-12-16T06:27:10.949Z,100909.47
2022-12-16T06:29:56.560Z,100944.44
2022-12-16T06:32:42.310Z,100952.06
2022-12-16T06:35:29.041Z,100962.59
2022-12-16T06:38:14.479Z,100956.38
2022-12-16T06:41:00.095Z,100959.63
2022-12-16T06:43:45.705Z,100960.31
2022-12-16T06:46:31.258Z,100973.34
2022-12-16T06:49:16.564Z,100971.56
2022-12-16T06:52:03.288Z,100981.94
2022-12-16T06:54:54.270Z,100980.66
2022-12-16T06:57:39.835Z,100983.97
2022-12-16T07:00:26.358Z,100988.16
2022-12-16T07:03:12.544Z,100990.47
2022-12-16T07:05:58.282Z,100989.41
2022-12-16T07:08:45.083Z,100988.31
2022-12-16T07:11:30.710Z,100989.97
2022-12-16T07:14:16.323Z,101000.19
2022-12-16T07:17:01.884Z,101010.47
2022-12-16T07:19:47.567Z,101007.56
2022-12-16T07:22:45.329Z,101008.56
2022-12-16T07:25:32.283Z,101017.38
2022-12-16T07:28:17.814Z,101026.84
2022-12-16T07:31:03.483Z,101037.38
2022-12-16T07:33:49.056Z,101032.06
2022-12-16T07:36:34.460Z,101040.06
2022-12-16T07:39:20.048Z,101034.56
2022-12-16T07:42:06.877Z,101044.09
2022-12-16T07:44:52.472Z,101045.19
2022-12-16T07:47:49.442Z,101051.19
2022-12-16T07:50:34.822Z,101061.47
2022-12-16T07:53:20.349Z,101062.34
2022-12-16T07:56:05.784Z,101069.38
2022-12-16T07:58:52.690Z,101071.13
2022-12-16T08:01:40.786Z,101081.84
2022-12-16T08:04:26.098Z,101087.19
2022-12-16T08:07:11.861Z,101094.47
2022-12-16T08:09:57.403Z,101095.38
2022-12-16T08:12:43.019Z,101100.06
2022-12-16T08:15:29.701Z,101096.53
2022-12-16T08:18:15.356Z,101102.63
2022-12-16T08:21:00.942Z,101101.72
2022-12-16T08:23:46.444Z,101107.69
2022-12-16T08:26:31.980Z,101115.63
2022-12-16T08:32:29.646Z,101124.59
2022-12-16T08:35:15.293Z,101128.50
2022-12-16T08:38:00.771Z,101142.53
2022-12-16T08:40:46.300Z,101145.19
2022-12-16T08:43:32.131Z,101148.00
2022-12-16T08:46:18.230Z,101154.22
2022-12-16T08:49:10.970Z,101156.09
2022-12-16T08:51:56.511Z,101165.63
2022-12-16T08:54:42.051Z,101159.72
2022-12-16T08:57:27.773Z,101171.31
2022-12-16T09:00:13.449Z,101169.72
2022-12-16T09:02:59.443Z,101162.00
2022-12-16T09:05:45.727Z,101167.34
2022-12-16T09:08:31.184Z,101173.56
2022-12-16T09:11:19.319Z,101171.75
2022-12-16T09:14:04.957Z,101174.59
2022-12-16T09:16:50.493Z,101182.47
2022-12-16T09:19:36.927Z,101187.00
2022-12-16T09:22:23.771Z,101193.09
2022-12-16T09:25:11.928Z,101193.16
2022-12-16T09:27:57.576Z,101198.72
2022-12-16T09:30:43.252Z,101190.09
2022-12-16T09:33:28.478Z,101201.63
2022-12-16T09:36:14.160Z,101200.94
2022-12-16T09:39:01.011Z,101206.03
2022-12-16T09:41:59.364Z,101213.19
2022-12-16T09:44:57.148Z,101211.50
2022-12-16T09:47:51.841Z,101220.28
2022-12-16T09:50:41.147Z,101221.22
2022-12-16T09:53:32.141Z,101225.91
2022-12-16T09:56:25.962Z,101222.28
2022-12-16T09:59:22.109Z,101220.75
2022-12-16T10:02:09.752Z,101228.44
2022-12-16T10:04:55.186Z,101223.22
2022-12-16T10:07:41.824Z,101216.41
2022-12-16T10:10:39.147Z,101221.66
2022-12-16T10:13:35.907Z,101226.94
2022-12-16T10:16:30.800Z,101236.59
2022-12-16T10:19:29.417Z,101228.00
2022-12-16T10:22:21.603Z,101233.31
2022-12-16T10:25:20.370Z,101232.53
2022-12-16T10:28:08.880Z,101229.25
2022-12-16T10:30:56.802Z,101229.44
2022-12-16T10:33:46.413Z,101231.97
2022-12-16T10:36:47.535Z,101232.78
2022-12-16T10:39:42.924Z,101231.91
2022-12-16T10:42:39.707Z,101233.66
2022-12-16T10:45:35.981Z,101232.97
2022-12-16T10:48:23.178Z,101241.84
2022-12-16T10:51:08.638Z,101240.06
2022-12-16T10:54:05.536Z,101229.66
2022-12-16T10:57:11.959Z,101233.16
2022-12-16T10:59:59.451Z,101230.72
2022-12-16T11:02:46.698Z,101235.00
2022-12-16T11:05:51.297Z,101240.31
2022-12-16T11:08:47.639Z,101238.53
2022-12-16T11:11:38.782Z,101229.88
2022-12-16T11:14:34.326Z,101228.97
2022-12-16T11:17:31.637Z,101228.22
2022-12-16T11:20:32.432Z,101234.13
2022-12-16T11:23:34.422Z,101239.16
2022-12-16T11:26:35.835Z,101234.69
2022-12-16T11:29:29.194Z,101236.75
2022-12-16T11:32:20.247Z,101238.63
2022-12-16T11:35:11.312Z,101240.50
2022-12-16T11:37:59.315Z,101247.72
2022-12-16T11:40:47.615Z,101244.19
2022-12-16T11:43:35.482Z,101250.47
2022-12-16T11:46:27.555Z,101246.19
2022-12-16T11:49:21.911Z,101254.03
2022-12-16T11:52:36.003Z,101253.06
2022-12-16T11:55:55.917Z,101261.94
2022-12-16T11:58:44.211Z,101260.19
2022-12-16T12:01:40.045Z,101260.22
2022-12-16T12:04:30.193Z,101263.81
2022-12-16T12:07:30.424Z,101262.19
2022-12-16T12:10:24.686Z,101259.66
2022-12-16T12:13:16.633Z,101258.06
2022-12-16T12:16:14.086Z,101265.97
2022-12-16T12:19:07.898Z,101265.88
2022-12-16T12:22:08.030Z,101278.13
2022-12-16T12:24:58.220Z,101277.03
2022-12-16T12:27:52.014Z,101272.03
2022-12-16T12:30:39.091Z,101271.16
2022-12-16T12:33:49.955Z,101272.09
2022-12-16T12:36:46.651Z,101263.47
2022-12-16T12:39:40.726Z,101270.50
2022-12-16T12:42:44.307Z,101275.81
2022-12-16T12:45:45.945Z,101281.91
2022-12-16T12:48:39.940Z,101290.28
2022-12-16T12:51:33.267Z,101286.94
2022-12-16T12:54:33.241Z,101287.03
2022-12-16T12:57:21.864Z,101293.38
2022-12-16T13:00:19.412Z,101302.19
2022-12-16T13:03:11.111Z,101301.34
2022-12-16T13:05:58.763Z,101305.09
2022-12-16T13:09:01.251Z,101300.97
2022-12-16T13:11:46.821Z,101302.72
2022-12-16T13:15:09.894Z,101300.25
2022-12-16T13:18:27.993Z,101301.78
2022-12-16T13:21:17.019Z,101306.75
2022-12-16T13:24:03.720Z,101305.91
2022-12-16T13:26:51.249Z,101306.03
2022-12-16T13:29:39.881Z,101313.22
2022-12-16T13:32:36.422Z,101314.88
2022-12-16T13:35:34.753Z,101301.97
2022-12-16T13:38:24.550Z,101308.97
2022-12-16T13:41:14.711Z,101318.66
2022-12-16T13:44:04.700Z,101320.34
2022-12-16T13:47:00.295Z,101314.81
2022-12-16T13:50:01.543Z,101324.38
2022-12-16T13:52:59.859Z,101327.81
2022-12-16T13:55:49.496Z,101331.16
2022-12-16T13:58:44.810Z,101337.09
2022-12-16T14:01:35.136Z,101344.97
2022-12-16T14:04:08.254Z,101282.81
2022-12-16T14:06:56.257Z,101339.69
2022-12-16T14:09:48.344Z,101356.09
2022-12-16T14:12:49.698Z,101349.91
2022-12-16T14:15:42.935Z,101356.84
2022-12-16T14:18:43.944Z,101357.72
2022-12-16T14:21:34.862Z,101358.56
2022-12-16T14:24:33.442Z,101364.72
2022-12-16T14:27:26.608Z,101358.69
2022-12-16T14:30:14.024Z,101363.00
2022-12-16T14:32:59.535Z,101362.94
2022-12-16T14:35:49.039Z,101364.47
2022-12-16T14:38:43.227Z,101373.13
2022-12-16T14:41:33.486Z,101374.81
2022-12-16T14:44:32.232Z,101378.25
2022-12-16T14:47:19.079Z,101378.88
2022-12-16T14:50:09.211Z,101382.16
2022-12-16T14:52:54.861Z,101377.66
2022-12-16T14:55:46.471Z,101370.47
2022-12-16T14:58:34.526Z,101374.72
2022-12-16T15:01:24.149Z,101368.31
2022-12-16T15:04:11.445Z,101383.94
2022-12-16T15:07:00.030Z,101389.97
2022-12-16T15:09:50.890Z,101396.06
2022-12-16T15:12:41.537Z,101403.03
2022-12-16T15:15:33.085Z,101408.22
2022-12-16T15:18:20.508Z,101409.94
2022-12-16T15:21:11.925Z,101422.91
2022-12-16T15:23:59.959Z,101420.28
2022-12-16T15:26:48.495Z,101434.25
2022-12-16T15:29:50.470Z,101436.00
2022-12-16T15:35:51.071Z,101450.69
2022-12-16T15:38:47.995Z,101456.84
2022-12-16T15:41:41.025Z,101440.84
2022-12-16T15:44:34.911Z,101462.91
2022-12-16T15:47:20.322Z,101471.59
2022-12-16T15:50:07.413Z,101479.25
2022-12-16T15:52:55.311Z,101472.00
2022-12-16T15:55:53.595Z,101478.03
2022-12-16T15:58:44.055Z,101481.69
2022-12-16T16:01:31.731Z,101482.56
2022-12-16T16:04:18.073Z,101487.56
2022-12-16T16:07:06.900Z,101483.06
2022-12-16T16:09:54.849Z,101486.19
2022-12-16T16:12:43.345Z,101487.78
2022-12-16T16:15:30.932Z,101486.78
2022-12-16T16:18:18.595Z,101489.47
2022-12-16T16:21:05.092Z,101494.81
2022-12-16T16:23:52.990Z,101485.22
2022-12-16T16:26:40.692Z,101488.56
2022-12-16T16:29:28.551Z,101483.06
2022-12-16T16:32:14.099Z,101502.47
2022-12-16T16:34:59.797Z,101508.53
2022-12-16T16:37:45.252Z,101520.78
2022-12-16T16:40:42.221Z,101517.25
2022-12-16T16:43:27.740Z,101516.16
2022-12-16T16:46:11.403Z,101508.81
2022-12-16T16:48:56.989Z,101522.13
2022-12-16T16:51:42.596Z,101518.59
2022-12-16T16:54:28.292Z,101527.94
2022-12-16T16:57:13.729Z,101525.13
2022-12-16T16:59:59.437Z,101529.47
2022-12-16T17:02:46.513Z,101526.00
2022-12-16T17:05:32.525Z,101536.50
2022-12-16T17:08:18.219Z,101531.22
2022-12-16T17:11:05.290Z,101528.59
2022-12-16T17:13:51.052Z,101528.72
2022-12-16T17:16:37.416Z,101538.59
2022-12-16T17:19:24.205Z,101541.31
2022-12-16T17:22:09.555Z,101526.44
2022-12-16T17:24:55.279Z,101537.00
2022-12-16T17:27:43.031Z,101544.66
2022-12-16T17:30:34.139Z,101552.59
2022-12-16T17:33:19.807Z,101544.75
2022-12-16T17:36:08.648Z,101543.28
2022-12-16T17:38:57.442Z,101541.84
2022-12-16T17:41:42.998Z,101546.09
2022-12-16T17:44:28.698Z,101545.84
2022-12-16T17:47:14.200Z,101551.22
2022-12-16T17:49:59.901Z,101552.09
2022-12-16T17:52:46.748Z,101556.50
2022-12-16T17:55:32.809Z,101550.19
2022-12-16T17:58:18.439Z,101573.88
2022-12-16T18:01:04.027Z,101570.31
2022-12-16T18:03:49.646Z,101575.22
2022-12-16T18:06:35.418Z,101581.41
2022-12-16T18:09:22.170Z,101585.72
2022-12-16T18:12:07.881Z,101585.19
2022-12-16T18:14:53.447Z,101593.34
2022-12-16T18:17:39.025Z,101601.47
2022-12-16T18:20:25.222Z,101595.63
2022-12-16T18:23:11.217Z,101595.06
2022-12-16T18:25:58.252Z,101604.53
2022-12-16T18:28:44.507Z,101596.25
2022-12-16T18:31:30.174Z,101597.84
2022-12-16T18:34:15.742Z,101606.72
2022-12-16T18:37:01.212Z,101593.22
2022-12-16T18:39:47.018Z,101607.22
2022-12-16T18:42:34.048Z,101604.66
2022-12-16T18:45:19.544Z,101618.69
2022-12-16T18:48:05.158Z,101623.91
2022-12-16T18:50:50.764Z,101620.34
2022-12-16T18:53:37.494Z,101612.56
2022-12-16T18:56:26.114Z,101613.56
2022-12-16T18:59:13.099Z,101615.19
2022-12-16T19:01:59.189Z,101631.22
2022-12-16T19:04:44.562Z,101634.59
2022-12-16T19:07:33.581Z,101645.75
2022-12-16T19:10:19.592Z,101635.38
2022-12-16T19:13:06.090Z,101637.16
2022-12-16T19:15:53.257Z,101644.38
2022-12-16T19:18:38.961Z,101647.16
2022-12-16T19:21:24.398Z,101641.97
2022-12-16T19:24:09.934Z,101646.34
2022-12-16T19:26:56.589Z,101638.59
2022-12-16T19:29:42.544Z,101637.78
2022-12-16T19:32:29.402Z,101638.38
2022-12-16T19:35:14.793Z,101652.28
2022-12-16T19:38:00.441Z,101655.59
2022-12-16T19:40:45.900Z,101647.75
2022-12-16T19:43:31.616Z,101651.16
2022-12-16T19:46:17.143Z,101653.75
2022-12-16T19:49:03.937Z,101669.38
2022-12-16T19:51:49.695Z,101674.13
2022-12-16T19:54:35.214Z,101667.19
2022-12-16T19:57:20.799Z,101669.84
2022-12-16T20:00:06.377Z,101667.25
2022-12-16T20:02:52.298Z,101674.16
2022-12-16T20:05:40.234Z,101668.84
2022-12-16T20:08:25.724Z,101675.91
2022-12-16T20:11:11.236Z,101670.63
2022-12-16T20:13:56.925Z,101681.78
2022-12-16T20:16:42.369Z,101678.13
2022-12-16T20:19:28.171Z,101683.31
2022-12-16T20:22:16.595Z,101675.28
2022-12-16T20:25:02.011Z,101683.13
2022-12-16T20:27:47.849Z,101670.97
2022-12-16T20:30:33.454Z,101683.22
2022-12-16T20:33:19.052Z,101692.91
2022-12-16T20:36:13.831Z,101698.38
2022-12-16T20:39:00.395Z,101688.09
2022-12-16T20:41:46.077Z,101699.25
2022-12-16T20:44:31.632Z,101699.22
2022-12-16T20:47:17.405Z,101707.75
2022-12-16T20:50:02.952Z,101718.97
2022-12-16T20:52:48.484Z,101719.81
2022-12-16T20:55:35.663Z,101725.03
2022-12-16T20:58:21.298Z,101721.53
2022-12-16T21:01:09.786Z,101722.38
2022-12-16T21:03:56.373Z,101727.59
2022-12-16T21:06:42.044Z,101734.56
2022-12-16T21:09:28.218Z,101733.72
2022-12-16T21:12:15.165Z,101738.09
2022-12-16T21:15:09.821Z,101736.47
2022-12-16T21:17:56.142Z,101734.06
2022-12-16T21:20:41.731Z,101727.91
2022-12-16T21:23:28.429Z,101746.19
2022-12-16T21:26:16.793Z,101731.59
2022-12-16T21:29:03.616Z,101733.72
2022-12-16T21:31:49.294Z,101738.66
2022-12-16T21:34:34.781Z,101740.81
2022-12-16T21:37:20.486Z,101741.09
2022-12-16T21:40:06.036Z,101750.38
2022-12-16T21:42:51.725Z,101750.84
2022-12-16T21:45:38.470Z,101748.06
2022-12-16T21:48:24.037Z,101750.22
2022-12-16T21:51:10.551Z,101759.66
2022-12-16T21:53:56.718Z,101749.63
2022-12-16T21:56:42.445Z,101753.97
2022-12-16T21:59:28.032Z,101762.50
2022-12-16T22:02:14.889Z,101751.22
2022-12-16T22:05:00.404Z,101755.34
2022-12-16T22:07:46.471Z,101759.63
2022-12-16T22:10:31.919Z,101762.94
2022-12-16T22:13:29.395Z,101761.88
2022-12-16T22:16:15.516Z,101759.69
2022-12-16T22:19:02.363Z,101761.69
2022-12-16T22:21:47.920Z,101758.59
2022-12-16T22:24:33.587Z,101766.78
2022-12-16T22:27:19.087Z,101767.53
2022-12-16T22:30:04.657Z,101771.00
2022-12-16T22:32:50.093Z,101756.28
2022-12-16T22:35:36.899Z,101768.47
2022-12-16T22:38:22.101Z,101776.63
2022-12-16T22:41:13.150Z,101771.81
2022-12-16T22:44:07.025Z,101774.88
2022-12-16T22:46:52.016Z,101775.13
2022-12-16T22:49:38.062Z,101777.56
2022-12-16T22:52:25.038Z,101776.25
2022-12-16T22:55:10.822Z,101782.19
2022-12-16T22:58:04.815Z,101784.88
2022-12-16T23:00:50.436Z,101775.75
2022-12-16T23:03:37.276Z,101788.34
2022-12-16T23:06:23.679Z,101782.19
2022-12-16T23:09:10.677Z,101779.44
2022-12-16T23:11:58.124Z,101777.81
2022-12-16T23:14:43.711Z,101781.47
2022-12-16T23:17:29.230Z,101775.97
2022-12-16T23:20:14.941Z,101777.31
2022-12-16T23:23:06.037Z,101791.50
2022-12-16T23:25:52.939Z,101784.19
2022-12-16T23:28:39.266Z,101788.38
2022-12-16T23:31:24.844Z,101791.41
2022-12-16T23:34:10.416Z,101794.00
2022-12-16T23:37:10.463Z,101805.94
2022-12-16T23:39:56.325Z,101799.28
2022-12-16T23:42:43.081Z,101795.78
2022-12-16T23:45:28.784Z,101796.75
2022-12-16T23:48:25.524Z,101800.94
2022-12-16T23:51:11.585Z,101803.59
2022-12-16T23:53:57.052Z,101805.16
2022-12-16T23:56:42.561Z,101807.34
2022-12-16T23:59:29.532Z,101811.97
